createdAt,value
2022-12-19T00:01:41.475Z,73.70
2022-12-19T00:04:12.164Z,73.80
2022-12-19T00:06:43.415Z,73.80
2022-12-19T00:09:11.527Z,73.80
2022-12-19T00:11:39.094Z,73.90
2022-12-19T00:14:07.192Z,73.80
2022-12-19T00:16:33.972Z,73.90
2022-12-19T00:19:01.847Z,73.80
2022-12-19T00:21:34.745Z,73.70
2022-12-19T00:24:10.458Z,73.80
2022-12-19T00:26:47.713Z,73.70
2022-12-19T00:29:14.755Z,73.60
2022-12-19T00:31:41.624Z,73.60
2022-12-19T00:34:09.586Z,73.70
2022-12-19T00:36:36.387Z,73.70
2022-12-19T00:39:07.918Z,73.80
2022-12-19T00:41:40.362Z,74.30
2022-12-19T00:44:16.340Z,73.80
2022-12-19T00:46:50.271Z,73.70
2022-12-19T00:49:20.691Z,73.70
2022-12-19T00:51:47.408Z,73.70
2022-12-19T00:54:14.345Z,73.60
2022-12-19T00:56:41.815Z,73.60
2022-12-19T00:59:10.484Z,73.60
2022-12-19T01:01:41.539Z,72.90
2022-12-19T01:04:30.544Z,73.50
2022-12-19T01:07:01.906Z,73.50
2022-12-19T01:09:31.149Z,73.40
2022-12-19T01:12:16.789Z,73.40
2022-12-19T01:14:43.719Z,73.40
2022-12-19T01:17:11.048Z,73.40
2022-12-19T01:19:43.665Z,73.30
2022-12-19T01:22:12.755Z,73.30
2022-12-19T01:24:39.812Z,73.30
2022-12-19T01:27:06.533Z,73.10
2022-12-19T01:29:34.704Z,73.00
2022-12-19T01:32:04.398Z,73.10
2022-12-19T01:34:31.296Z,73.10
2022-12-19T01:36:58.090Z,73.10
2022-12-19T01:39:24.797Z,73.10
2022-12-19T01:41:54.235Z,73.00
2022-12-19T01:44:24.156Z,73.00
2022-12-19T01:46:57.655Z,73.00
2022-12-19T01:49:36.303Z,73.10
2022-12-19T01:52:08.039Z,73.00
2022-12-19T01:54:41.153Z,72.90
2022-12-19T01:57:14.012Z,73.10
2022-12-19T01:59:53.551Z,73.10
2022-12-19T02:02:33.315Z,73.00
2022-12-19T02:05:04.535Z,73.00
2022-12-19T02:07:33.293Z,73.00
2022-12-19T02:10:00.348Z,72.70
2022-12-19T02:12:31.231Z,72.90
2022-12-19T02:15:02.746Z,72.80
2022-12-19T02:18:13.662Z,73.00
2022-12-19T02:21:18.202Z,72.90
2022-12-19T02:24:26.327Z,72.90
2022-12-19T02:27:40.152Z,72.60
2022-12-19T02:30:37.628Z,72.70
2022-12-19T02:33:44.877Z,72.60
2022-12-19T02:36:22.842Z,72.50
2022-12-19T02:39:08.357Z,72.60
2022-12-19T02:41:50.757Z,72.40
2022-12-19T02:44:36.119Z,72.50
2022-12-19T02:47:06.002Z,72.50
2022-12-19T02:49:35.754Z,72.60
2022-12-19T02:52:34.488Z,72.50
2022-12-19T02:55:08.485Z,72.50
2022-12-19T02:57:44.156Z,72.40
2022-12-19T03:00:20.916Z,71.60
2022-12-19T03:03:24.205Z,72.30
2022-12-19T03:06:11.364Z,72.00
2022-12-19T03:08:59.660Z,72.20
2022-12-19T03:11:33.775Z,72.30
2022-12-19T03:14:07.359Z,72.30
2022-12-19T03:16:38.334Z,72.30
2022-12-19T03:19:11.880Z,72.30
2022-12-19T03:21:46.085Z,72.30
2022-12-19T03:24:14.672Z,72.20
2022-12-19T03:27:08.050Z,72.30
2022-12-19T03:30:02.523Z,72.30
2022-12-19T03:32:31.600Z,72.30
2022-12-19T03:35:11.654Z,72.50
2022-12-19T03:37:42.197Z,72.40
2022-12-19T03:40:15.139Z,72.40
2022-12-19T03:43:03.431Z,72.40
2022-12-19T03:45:40.031Z,72.40
2022-12-19T03:48:32.987Z,72.40
2022-12-19T03:51:09.914Z,71.60
2022-12-19T03:53:54.898Z,72.30
2022-12-19T03:56:41.199Z,72.80
2022-12-19T03:59:21.155Z,72.10
2022-12-19T04:01:49.952Z,72.30
2022-12-19T04:04:17.582Z,72.30
2022-12-19T04:06:45.601Z,72.20
2022-12-19T04:09:16.744Z,72.20
2022-12-19T04:11:57.412Z,72.20
2022-12-19T04:14:33.307Z,72.10
2022-12-19T04:17:22.949Z,72.10
2022-12-19T04:20:03.267Z,71.50
2022-12-19T04:22:50.799Z,72.10
2022-12-19T04:25:29.501Z,71.30
2022-12-19T04:28:05.862Z,72.60
2022-12-19T04:30:36.534Z,72.00
2022-12-19T04:33:04.312Z,72.00
2022-12-19T04:35:31.579Z,72.00
2022-12-19T04:37:58.424Z,72.00
2022-12-19T04:40:25.201Z,72.00
2022-12-19T04:42:51.916Z,72.00
2022-12-19T04:45:18.723Z,71.20
2022-12-19T04:47:45.745Z,71.90
2022-12-19T04:50:12.489Z,71.20
2022-12-19T04:52:39.227Z,71.90
2022-12-19T04:55:06.799Z,71.80
2022-12-19T04:57:33.587Z,71.80
2022-12-19T05:00:01.320Z,71.80
2022-12-19T05:02:28.351Z,71.70
2022-12-19T05:04:55.244Z,71.60
2022-12-19T05:07:22.094Z,71.50
2022-12-19T05:09:48.897Z,71.30
2022-12-19T05:12:15.684Z,71.10
2022-12-19T05:14:43.048Z,71.20
2022-12-19T05:17:09.776Z,71.10
2022-12-19T05:19:36.663Z,71.10
2022-12-19T05:22:04.086Z,70.90
2022-12-19T05:24:31.197Z,71.00
2022-12-19T05:26:58.130Z,70.90
2022-12-19T05:29:24.862Z,70.70
2022-12-19T05:31:52.272Z,70.70
2022-12-19T05:34:18.989Z,70.80
2022-12-19T05:36:46.630Z,70.90
2022-12-19T05:39:13.386Z,70.90
2022-12-19T05:41:40.093Z,70.70
2022-12-19T05:44:06.803Z,70.70
2022-12-19T05:46:33.509Z,70.70
2022-12-19T05:49:00.246Z,70.90
2022-12-19T05:51:27.430Z,70.60
2022-12-19T05:53:54.142Z,70.70
2022-12-19T05:56:23.085Z,70.70
2022-12-19T05:58:50.527Z,70.60
2022-12-19T06:01:24.819Z,70.60
2022-12-19T06:03:53.371Z,70.60
2022-12-19T06:06:24.533Z,70.70
2022-12-19T06:08:56.411Z,70.90
2022-12-19T06:11:24.092Z,70.80
2022-12-19T06:13:51.302Z,70.80
2022-12-19T06:16:21.483Z,70.80
2022-12-19T06:18:48.371Z,70.90
2022-12-19T06:21:19.351Z,70.70
2022-12-19T06:23:47.067Z,70.70
2022-12-19T06:26:19.967Z,70.60
2022-12-19T06:28:52.719Z,70.60
2022-12-19T06:31:23.014Z,70.30
2022-12-19T06:33:50.258Z,70.40
2022-12-19T06:36:27.046Z,70.40
2022-12-19T06:38:55.825Z,69.70
2022-12-19T06:41:41.150Z,70.70
2022-12-19T06:44:11.635Z,70.60
2022-12-19T06:46:40.584Z,70.50
2022-12-19T06:49:08.598Z,70.40
2022-12-19T06:51:36.035Z,70.40
2022-12-19T06:54:02.798Z,70.30
2022-12-19T06:56:37.709Z,70.30
2022-12-19T06:59:06.053Z,70.30
2022-12-19T07:01:52.453Z,70.30
2022-12-19T07:04:47.042Z,70.30
2022-12-19T07:07:14.465Z,70.40
2022-12-19T07:09:41.430Z,70.50
2022-12-19T07:12:08.286Z,70.40
2022-12-19T07:14:35.040Z,70.50
2022-12-19T07:17:03.628Z,70.50
2022-12-19T07:19:32.836Z,70.40
2022-12-19T07:22:02.173Z,70.30
2022-12-19T07:26:56.844Z,69.50
2022-12-19T07:29:23.579Z,70.20
2022-12-19T07:31:50.350Z,70.20
2022-12-19T07:34:17.176Z,70.00
2022-12-19T07:36:43.910Z,70.10
2022-12-19T07:39:10.831Z,70.10
2022-12-19T07:41:38.557Z,69.80
2022-12-19T07:44:07.139Z,69.70
2022-12-19T07:46:34.210Z,69.60
2022-12-19T07:49:01.145Z,69.30
2022-12-19T07:53:55.980Z,68.90
2022-12-19T07:56:22.747Z,69.70
2022-12-19T07:58:49.811Z,69.60
2022-12-19T08:01:16.578Z,69.60
2022-12-19T08:03:43.533Z,69.50
2022-12-19T08:06:10.651Z,69.50
2022-12-19T08:08:37.784Z,69.60
2022-12-19T08:11:19.322Z,69.60
2022-12-19T08:13:47.999Z,69.20
2022-12-19T08:16:15.204Z,69.30
2022-12-19T08:18:42.156Z,69.10
2022-12-19T08:21:10.465Z,69.10
2022-12-19T08:23:38.791Z,68.80
2022-12-19T08:26:11.611Z,68.90
2022-12-19T08:28:38.909Z,69.00
2022-12-19T08:31:17.948Z,68.70
2022-12-19T08:33:45.574Z,68.60
2022-12-19T08:36:16.048Z,68.80
2022-12-19T08:38:42.770Z,68.90
2022-12-19T08:41:09.931Z,68.90
2022-12-19T08:43:37.164Z,69.00
2022-12-19T08:46:04.975Z,69.00
2022-12-19T08:48:33.758Z,69.00
2022-12-19T08:51:05.330Z,67.50
2022-12-19T08:53:37.315Z,68.60
2022-12-19T08:56:19.342Z,68.60
2022-12-19T08:58:47.192Z,68.60
2022-12-19T09:01:19.247Z,69.00
2022-12-19T09:04:29.445Z,68.00
2022-12-19T09:06:33.947Z,67.80
2022-12-19T09:09:01.037Z,67.90
2022-12-19T09:11:27.902Z,67.90
2022-12-19T09:13:57.528Z,67.90
2022-12-19T09:16:27.967Z,68.00
2022-12-19T09:18:58.558Z,68.00
2022-12-19T09:21:29.336Z,68.00
2022-12-19T09:24:07.123Z,67.60
2022-12-19T09:26:35.607Z,67.70
2022-12-19T09:29:03.601Z,67.50
2022-12-19T09:31:35.004Z,67.50
2022-12-19T09:34:02.977Z,67.50
2022-12-19T09:36:29.744Z,67.40
2022-12-19T09:38:58.594Z,68.10
2022-12-19T09:42:07.991Z,67.70
2022-12-19T09:45:32.386Z,67.40
2022-12-19T09:48:01.969Z,67.40
2022-12-19T09:50:54.347Z,67.40
2022-12-19T09:53:38.184Z,67.50
2022-12-19T09:56:15.333Z,67.80
2022-12-19T09:58:53.223Z,67.30
2022-12-19T10:01:29.609Z,67.30
2022-12-19T10:04:18.347Z,67.20
2022-12-19T10:11:53.888Z,66.50
2022-12-19T10:12:51.384Z,67.00
2022-12-19T10:15:57.421Z,67.80
2022-12-19T10:18:35.610Z,66.80
2022-12-19T10:22:16.228Z,66.90
2022-12-19T10:25:12.911Z,66.50
2022-12-19T10:28:10.195Z,66.70
2022-12-19T10:31:09.896Z,66.90
2022-12-19T10:33:55.811Z,66.30
2022-12-19T10:36:48.864Z,66.50
2022-12-19T10:39:33.419Z,66.00
2022-12-19T10:42:18.657Z,66.00
2022-12-19T10:44:48.132Z,65.90
2022-12-19T10:47:17.511Z,66.20
2022-12-19T10:49:44.317Z,66.90
2022-12-19T10:52:12.674Z,66.10
2022-12-19T10:54:42.852Z,66.50
2022-12-19T10:57:30.397Z,66.00
2022-12-19T11:00:09.655Z,65.20
2022-12-19T11:02:47.137Z,65.60
2022-12-19T11:05:39.231Z,65.00
2022-12-19T11:08:08.801Z,65.20
2022-12-19T11:12:38.585Z,65.30
2022-12-19T11:19:37.112Z,65.10
2022-12-19T11:21:42.364Z,64.70
2022-12-19T11:29:44.436Z,64.90
2022-12-19T11:29:45.132Z,64.20
2022-12-19T11:29:54.648Z,64.80
2022-12-19T11:30:45.316Z,64.40
2022-12-19T11:32:32.028Z,64.80
2022-12-19T11:34:23.823Z,65.10
2022-12-19T11:37:19.624Z,66.20
2022-12-19T11:39:56.253Z,65.60
2022-12-19T11:43:25.495Z,65.80
2022-12-19T11:46:28.243Z,65.70
2022-12-19T11:49:43.834Z,65.90
2022-12-19T11:53:14.668Z,65.90
2022-12-19T11:55:59.185Z,66.30
2022-12-19T11:58:29.872Z,66.30
2022-12-19T12:01:09.232Z,66.60
2022-12-19T12:04:12.512Z,66.90
2022-12-19T12:06:53.034Z,66.90
2022-12-19T12:13:52.005Z,67.10
2022-12-19T12:16:18.589Z,67.20
2022-12-19T12:31:04.789Z,67.20
2022-12-19T12:31:31.134Z,67.40
2022-12-19T12:31:31.852Z,67.70
2022-12-19T12:31:46.929Z,68.30
2022-12-19T12:32:03.001Z,68.00
2022-12-19T12:35:51.513Z,68.70
2022-12-19T12:42:04.715Z,69.60
2022-12-19T12:44:44.772Z,70.30
2022-12-19T12:47:27.836Z,70.30
2022-12-19T12:50:05.480Z,70.40
2022-12-19T12:52:47.857Z,70.60
2022-12-19T12:55:32.453Z,70.60
2022-12-19T12:57:59.712Z,71.60
2022-12-19T13:00:34.655Z,71.70
2022-12-19T13:03:09.399Z,72.20
2022-12-19T13:05:41.076Z,72.80
2022-12-19T13:08:49.971Z,72.50
2022-12-19T13:11:37.920Z,73.90
2022-12-19T13:14:26.450Z,73.50
2022-12-19T13:16:54.417Z,73.50
2022-12-19T13:19:32.730Z,73.90
2022-12-19T13:22:05.482Z,74.30
2022-12-19T13:24:51.642Z,74.40
2022-12-19T13:27:22.412Z,75.30
2022-12-19T13:30:01.139Z,74.70
2022-12-19T13:32:52.902Z,75.90
2022-12-19T13:37:55.693Z,75.80
2022-12-19T13:40:02.345Z,75.40
2022-12-19T13:41:49.015Z,75.70
2022-12-19T13:44:21.901Z,76.90
2022-12-19T13:46:49.602Z,76.60
2022-12-19T13:49:34.290Z,76.40
2022-12-19T13:52:04.975Z,77.40
2022-12-19T13:54:45.472Z,76.80
2022-12-19T13:57:28.733Z,77.40
2022-12-19T14:00:01.784Z,77.60
2022-12-19T14:02:43.715Z,77.20
2022-12-19T14:06:14.446Z,77.40
2022-12-19T14:08:21.485Z,78.20
2022-12-19T14:11:34.077Z,78.10
2022-12-19T14:14:28.176Z,78.20
2022-12-19T14:17:05.020Z,78.70
2022-12-19T14:19:40.419Z,78.10
2022-12-19T14:22:26.356Z,78.70
2022-12-19T14:25:52.321Z,77.80
2022-12-19T14:28:25.550Z,79.50
2022-12-19T14:31:00.766Z,79.50
2022-12-19T14:33:54.257Z,79.10
2022-12-19T14:36:30.747Z,79.60
2022-12-19T14:39:23.670Z,79.30
2022-12-19T14:42:08.521Z,79.30
2022-12-19T14:52:35.432Z,79.50
2022-12-19T14:54:11.644Z,79.20
2022-12-19T14:54:17.437Z,80.80
2022-12-19T14:54:31.209Z,80.60
2022-12-19T14:59:21.427Z,80.90
2022-12-19T15:01:55.845Z,80.60
2022-12-19T15:04:52.314Z,81.00
2022-12-19T15:07:23.762Z,81.10
2022-12-19T15:11:07.400Z,81.50
2022-12-19T15:14:49.012Z,80.70
2022-12-19T15:16:36.047Z,82.20
2022-12-19T15:19:10.890Z,82.40
2022-12-19T15:21:37.631Z,81.30
2022-12-19T15:24:04.587Z,81.00
2022-12-19T15:26:36.156Z,81.20
2022-12-19T15:29:14.090Z,81.80
2022-12-19T15:31:46.555Z,81.70
2022-12-19T15:34:40.149Z,81.20
2022-12-19T15:37:14.842Z,82.70
2022-12-19T15:39:43.069Z,81.70
2022-12-19T15:42:24.406Z,81.70
2022-12-19T15:44:53.925Z,82.80
2022-12-19T15:47:31.977Z,82.10
2022-12-19T15:50:02.561Z,82.80
2022-12-19T15:52:30.141Z,82.20
2022-12-19T15:54:57.408Z,82.20
2022-12-19T15:57:41.991Z,82.30
2022-12-19T16:00:16.232Z,82.20
2022-12-19T16:03:21.190Z,82.80
2022-12-19T16:05:29.955Z,82.00
2022-12-19T16:07:58.773Z,82.10
2022-12-19T16:10:26.513Z,82.50
2022-12-19T16:12:57.351Z,82.70
2022-12-19T16:15:33.560Z,82.80
2022-12-19T16:18:03.080Z,83.10
2022-12-19T16:20:36.083Z,82.80
2022-12-19T16:23:02.972Z,82.70
2022-12-19T16:25:42.505Z,82.90
2022-12-19T16:28:19.616Z,83.50
2022-12-19T16:30:47.299Z,83.60
2022-12-19T16:33:24.861Z,83.10
2022-12-19T16:36:04.247Z,83.70
2022-12-19T16:38:33.226Z,83.30
2022-12-19T16:41:01.496Z,83.20
2022-12-19T16:43:38.435Z,83.30
2022-12-19T16:46:07.963Z,83.70
2022-12-19T16:48:38.048Z,83.80
2022-12-19T16:51:04.926Z,83.70
2022-12-19T16:53:31.643Z,83.60
2022-12-19T16:56:00.747Z,83.60
2022-12-19T16:58:29.493Z,84.00
2022-12-19T17:00:57.004Z,84.10
2022-12-19T17:03:41.412Z,83.90
2022-12-19T17:06:15.191Z,84.80
2022-12-19T17:08:42.516Z,84.50
2022-12-19T17:11:20.323Z,84.10
2022-12-19T17:13:52.243Z,84.50
2022-12-19T17:16:19.516Z,84.30
2022-12-19T17:18:47.232Z,84.10
2022-12-19T17:21:21.768Z,84.30
2022-12-19T17:23:50.429Z,84.70
2022-12-19T17:26:18.449Z,84.50
2022-12-19T17:28:48.167Z,84.20
2022-12-19T17:31:29.025Z,84.30
2022-12-19T17:33:58.977Z,85.00
2022-12-19T17:36:36.767Z,84.00
2022-12-19T17:39:24.195Z,84.60
2022-12-19T17:41:52.309Z,84.90
2022-12-19T17:44:19.390Z,84.20
2022-12-19T17:46:47.573Z,84.40
2022-12-19T17:49:21.653Z,84.60
2022-12-19T17:51:52.340Z,84.80
2022-12-19T17:54:20.874Z,84.80
2022-12-19T17:56:47.854Z,84.80
2022-12-19T17:59:14.691Z,84.50
2022-12-19T18:01:43.710Z,84.60
2022-12-19T18:04:20.769Z,84.80
2022-12-19T18:06:47.857Z,85.40
2022-12-19T18:09:20.458Z,84.60
2022-12-19T18:11:49.244Z,85.30
2022-12-19T18:14:16.756Z,85.10
2022-12-19T18:16:45.426Z,85.10
2022-12-19T18:19:25.145Z,85.10
2022-12-19T18:21:51.987Z,85.70
2022-12-19T18:24:18.732Z,85.10
2022-12-19T18:26:45.616Z,85.20
2022-12-19T18:29:12.727Z,85.10
2022-12-19T18:31:43.607Z,85.20
2022-12-19T18:34:25.369Z,84.80
2022-12-19T18:36:53.433Z,85.80
2022-12-19T18:39:27.764Z,85.30
2022-12-19T18:41:54.876Z,85.80
2022-12-19T18:44:23.051Z,85.20
2022-12-19T18:46:51.834Z,85.30
2022-12-19T18:49:19.911Z,85.50
2022-12-19T18:51:47.040Z,85.50
2022-12-19T18:54:21.211Z,85.50
2022-12-19T18:56:48.310Z,85.20
2022-12-19T18:59:15.064Z,85.80
2022-12-19T19:01:46.576Z,85.90
2022-12-19T19:04:17.535Z,86.10
2022-12-19T19:06:51.581Z,86.10
2022-12-19T19:09:20.393Z,86.00
2022-12-19T19:11:47.180Z,85.90
2022-12-19T19:14:14.465Z,85.80
2022-12-19T19:16:41.528Z,85.60
2022-12-19T19:19:13.803Z,85.70
2022-12-19T19:21:41.618Z,85.90
2022-12-19T19:24:17.922Z,86.40
2022-12-19T19:26:44.804Z,85.90
2022-12-19T19:29:13.555Z,85.80
2022-12-19T19:31:44.730Z,85.70
2022-12-19T19:34:21.809Z,85.90
2022-12-19T19:36:55.844Z,86.00
2022-12-19T19:39:23.475Z,86.00
2022-12-19T19:41:50.232Z,86.50
2022-12-19T19:44:16.984Z,85.30
2022-12-19T19:46:43.872Z,85.40
2022-12-19T19:49:10.639Z,85.50
2022-12-19T19:51:37.491Z,85.70
2022-12-19T19:54:04.629Z,85.50
2022-12-19T19:56:32.287Z,85.40
2022-12-19T19:59:00.606Z,85.50
2022-12-19T20:01:27.561Z,85.50
2022-12-19T20:03:54.487Z,85.50
2022-12-19T20:06:21.312Z,85.50
2022-12-19T20:08:48.196Z,85.50
2022-12-19T20:11:15.330Z,85.40
2022-12-19T20:13:42.247Z,85.50
2022-12-19T20:16:17.915Z,85.50
2022-12-19T20:18:52.733Z,85.80
2022-12-19T20:21:20.361Z,85.70
2022-12-19T20:23:47.470Z,85.50
2022-12-19T20:26:16.446Z,85.40
2022-12-19T20:28:49.022Z,86.20
2022-12-19T20:31:19.261Z,85.40
2022-12-19T20:33:46.713Z,85.40
2022-12-19T20:36:14.276Z,85.40
2022-12-19T20:38:42.623Z,84.80
2022-12-19T20:41:09.376Z,85.50
2022-12-19T20:43:38.262Z,85.40
2022-12-19T20:46:09.699Z,85.30
2022-12-19T20:48:37.215Z,85.50
2022-12-19T20:51:05.511Z,85.40
2022-12-19T20:53:34.904Z,85.30
2022-12-19T20:56:06.543Z,85.30
2022-12-19T20:58:36.808Z,85.30
2022-12-19T21:01:09.671Z,85.20
2022-12-19T21:03:37.975Z,85.30
2022-12-19T21:06:07.260Z,85.20
2022-12-19T21:08:35.344Z,85.30
2022-12-19T21:11:03.641Z,85.30
2022-12-19T21:13:30.497Z,85.30
2022-12-19T21:16:06.885Z,85.40
2022-12-19T21:18:35.176Z,85.40
2022-12-19T21:21:03.496Z,85.40
2022-12-19T21:23:30.477Z,85.30
2022-12-19T21:26:00.320Z,85.30
2022-12-19T21:28:27.372Z,85.30
2022-12-19T21:31:12.109Z,85.30
2022-12-19T21:33:38.919Z,85.70
2022-12-19T21:36:09.242Z,86.30
2022-12-19T21:38:37.748Z,87.10
2022-12-19T21:41:07.377Z,87.80
2022-12-19T21:43:35.737Z,88.40
2022-12-19T21:46:15.683Z,89.00
2022-12-19T21:48:46.875Z,89.30
2022-12-19T21:51:15.114Z,89.70
2022-12-19T21:53:42.394Z,90.00
2022-12-19T21:56:32.625Z,90.10
2022-12-19T21:59:03.675Z,90.20
2022-12-19T22:01:31.702Z,90.50
2022-12-19T22:04:07.977Z,90.70
2022-12-19T22:06:37.232Z,90.70
2022-12-19T22:09:07.224Z,90.70
2022-12-19T22:11:35.809Z,91.00
2022-12-19T22:14:05.140Z,91.20
2022-12-19T22:16:33.196Z,91.20
2022-12-19T22:19:00.737Z,91.30
2022-12-19T22:21:28.050Z,91.30
2022-12-19T22:24:03.095Z,91.40
2022-12-19T22:26:31.996Z,91.30
2022-12-19T22:28:59.330Z,91.40
2022-12-19T22:31:30.359Z,91.50
2022-12-19T22:34:00.725Z,91.50
2022-12-19T22:36:31.321Z,91.50
2022-12-19T22:39:01.351Z,91.60
2022-12-19T22:41:29.389Z,91.60
2022-12-19T22:43:56.608Z,91.70
2022-12-19T22:46:30.429Z,91.70
2022-12-19T22:49:01.542Z,91.70
2022-12-19T22:51:31.199Z,91.70
2022-12-19T22:53:59.454Z,91.70
2022-12-19T22:56:29.365Z,91.80
2022-12-19T22:59:00.358Z,91.70
2022-12-19T23:01:29.553Z,91.70
2022-12-19T23:03:58.845Z,91.70
2022-12-19T23:06:29.119Z,91.70
2022-12-19T23:08:56.172Z,91.80
2022-12-19T23:11:29.449Z,91.80
2022-12-19T23:13:56.168Z,91.70
2022-12-19T23:16:22.904Z,91.70
2022-12-19T23:21:21.474Z,91.40
2022-12-19T23:23:52.167Z,91.70
2022-12-19T23:26:26.383Z,91.70
2022-12-19T23:28:57.724Z,91.60
2022-12-19T23:31:25.631Z,91.60
2022-12-19T23:33:52.747Z,91.60
2022-12-19T23:36:38.163Z,91.60
2022-12-19T23:39:06.727Z,91.50
2022-12-19T23:41:33.545Z,91.50
2022-12-19T23:44:00.430Z,91.50
2022-12-19T23:46:27.999Z,91.40
2022-12-19T23:48:55.750Z,91.30
2022-12-19T23:51:26.474Z,91.40
2022-12-19T23:53:56.996Z,91.10
2022-12-19T23:56:29.942Z,91.00
2022-12-19T23:58:57.452Z,90.90
